Time;durP1;ratioP1;P1;durP2;ratioP2;P2;SDS_P1;SDS_P2;PMS_P1;PMS_P2;Temp;Humidity;BMP_temperature;BMP_pressure;BME280_temperature;BME280_humidity;BME280_pressure;Samples;Min_cycle;Max_cycle;Signal;HPM_P1;HPM_P2
2024/03/31 00:00:49;;;;;;;36.47;5.63;;;;;;;8.91;100.00;95796.69;5119121;28;20453;-80
2024/03/31 00:03:15;;;;;;;21.90;4.50;;;;;;;9.04;100.00;95796.00;5109136;28;20572;-80
2024/03/31 00:05:41;;;;;;;26.83;4.63;;;;;;;9.08;100.00;95794.41;5123912;28;20416;-80
2024/03/31 00:08:09;;;;;;;40.45;5.93;;;;;;;9.05;100.00;95783.59;5120302;28;20909;-82
2024/03/31 00:10:35;;;;;;;36.93;4.70;;;;;;;9.08;100.00;95783.06;5110469;28;20607;-82
2024/03/31 00:13:01;;;;;;;33.53;5.50;;;;;;;9.01;100.00;95786.03;5115504;28;20426;-79
2024/03/31 00:15:27;;;;;;;38.22;5.97;;;;;;;9.08;100.00;95780.41;5117693;28;20451;-81
2024/03/31 00:17:54;;;;;;;27.92;6.00;;;;;;;9.08;100.00;95783.06;5108275;28;20398;-80
2024/03/31 00:20:20;;;;;;;31.17;5.43;;;;;;;9.19;100.00;95792.44;5100400;28;20958;-80
2024/03/31 00:22:47;;;;;;;29.00;4.82;;;;;;;9.05;100.00;95794.94;5102836;28;20398;-80
2024/03/31 00:25:14;;;;;;;37.13;6.13;;;;;;;9.01;100.00;95801.06;5114407;28;20678;-81
2024/03/31 00:27:41;;;;;;;31.45;6.05;;;;;;;9.07;100.00;95813.16;5115742;28;20519;-81
2024/03/31 00:30:07;;;;;;;40.45;6.38;;;;;;;9.14;100.00;95808.31;5103335;28;20402;-80
2024/03/31 00:32:33;;;;;;;34.25;5.90;;;;;;;9.11;100.00;95820.22;5102751;28;20405;-80
2024/03/31 00:34:59;;;;;;;30.10;5.50;;;;;;;9.21;100.00;95820.13;5111406;28;20445;-81
2024/03/31 00:37:26;;;;;;;41.22;5.90;;;;;;;9.02;100.00;95821.13;5112767;28;20398;-80
2024/03/31 00:39:52;;;;;;;33.90;5.88;;;;;;;9.06;100.00;95814.22;5101947;28;20394;-80
2024/03/31 00:42:20;;;;;;;37.03;5.32;;;;;;;9.01;100.00;95822.19;5109168;28;20400;-81
2024/03/31 00:44:46;;;;;;;23.52;5.88;;;;;;;9.09;100.00;95827.66;5107339;28;20401;-77
2024/03/31 00:47:12;;;;;;;26.90;5.03;;;;;;;9.03;100.00;95818.19;5099193;28;20410;-80
2024/03/31 00:49:38;;;;;;;37.85;5.10;;;;;;;9.02;100.00;95816.63;5100479;28;20401;-80
2024/03/31 00:52:05;;;;;;;25.77;4.87;;;;;;;8.98;100.00;95818.25;5101200;28;20409;-80
2024/03/31 00:54:31;;;;;;;29.73;4.57;;;;;;;8.97;100.00;95813.25;5091387;28;20397;-80
2024/03/31 00:56:58;;;;;;;16.80;3.80;;;;;;;9.06;100.00;95816.84;5107110;28;20753;-79
2024/03/31 00:59:25;;;;;;;32.13;4.90;;;;;;;9.10;100.00;95817.84;5104012;28;20498;-79
2024/03/31 01:01:51;;;;;;;17.60;4.47;;;;;;;9.08;100.00;95820.78;5116672;28;20392;-80
2024/03/31 01:04:18;;;;;;;25.58;5.03;;;;;;;9.03;100.00;95814.75;5102142;28;20396;-80
2024/03/31 01:06:44;;;;;;;20.47;4.23;;;;;;;9.07;100.00;95807.88;5100010;28;20390;-80
2024/03/31 01:09:10;;;;;;;26.55;4.43;;;;;;;9.07;100.00;95803.38;5106209;28;20390;-80
2024/03/31 01:11:37;;;;;;;30.77;5.30;;;;;;;8.97;100.00;95802.69;5097049;28;20406;-81
2024/03/31 01:14:05;;;;;;;27.70;4.35;;;;;;;9.01;100.00;95811.63;5109745;28;20392;-80
2024/03/31 01:16:32;;;;;;;25.65;4.57;;;;;;;8.98;100.00;95799.00;5112264;28;20410;-81
2024/03/31 01:18:58;;;;;;;29.43;4.77;;;;;;;9.06;100.00;95801.03;5109746;28;20420;-80
2024/03/31 01:21:27;;;;;;;36.03;5.50;;;;;;;8.99;100.00;95800.56;5108649;28;20401;-80
2024/03/31 01:23:56;;;;;;;28.83;5.13;;;;;;;9.08;100.00;95802.31;5108019;28;20393;-80
2024/03/31 01:26:22;;;;;;;30.52;4.68;;;;;;;9.02;100.00;95795.50;5118232;28;20392;-80
2024/03/31 01:28:48;;;;;;;38.30;5.23;;;;;;;8.96;100.00;95801.09;5115053;28;20482;-80
2024/03/31 01:31:15;;;;;;;24.10;4.65;;;;;;;8.99;100.00;95801.34;5099534;28;20433;-80
2024/03/31 01:33:41;;;;;;;26.60;5.57;;;;;;;9.05;100.00;95804.72;5100186;28;20420;-80
2024/03/31 01:36:07;;;;;;;24.80;4.77;;;;;;;9.08;100.00;95790.97;5100362;28;20433;-80
2024/03/31 01:38:33;;;;;;;30.33;4.22;;;;;;;9.15;100.00;95792.22;5108899;28;20403;-79
2024/03/31 01:41:01;;;;;;;24.00;4.30;;;;;;;9.08;100.00;95785.69;5113130;28;20396;-79
2024/03/31 01:43:27;;;;;;;30.98;4.68;;;;;;;9.08;100.00;95781.22;5124440;28;20762;-79
2024/03/31 01:45:53;;;;;;;31.80;5.32;;;;;;;9.09;100.00;95782.78;5136606;28;20403;-79
2024/03/31 01:48:19;;;;;;;27.63;4.88;;;;;;;8.98;100.00;95781.31;5136095;28;20397;-81
2024/03/31 01:50:46;;;;;;;22.77;4.68;;;;;;;9.06;100.00;95778.06;5120466;28;20386;-81
2024/03/31 01:53:12;;;;;;;35.85;6.00;;;;;;;9.08;100.00;95783.06;5108091;28;20389;-80
2024/03/31 01:55:38;;;;;;;40.03;5.32;;;;;;;9.15;100.00;95773.75;5124481;28;20469;-81
2024/03/31 01:58:06;;;;;;;22.83;4.20;;;;;;;9.25;100.00;95778.88;5125450;28;20479;-79
2024/03/31 02:00:32;;;;;;;19.52;4.00;;;;;;;9.21;100.00;95774.47;5116601;28;20826;-81
2024/03/31 02:02:59;;;;;;;9.73;2.60;;;;;;;9.18;100.00;95780.28;5124656;28;20404;-81
2024/03/31 02:05:25;;;;;;;21.00;3.65;;;;;;;9.13;100.00;95786.41;5124312;28;20392;-82
2024/03/31 02:07:52;;;;;;;9.32;3.00;;;;;;;9.11;100.00;95779.84;5124823;28;20396;-81
2024/03/31 02:10:18;;;;;;;7.95;2.70;;;;;;;9.11;100.00;95774.56;5120081;28;20406;-81
2024/03/31 02:12:44;;;;;;;8.48;2.55;;;;;;;9.10;100.00;95783.53;5103200;28;20405;-81
2024/03/31 02:15:12;;;;;;;13.68;2.17;;;;;;;9.09;100.00;95779.34;5103399;28;20448;-80
2024/03/31 02:17:38;;;;;;;9.35;2.75;;;;;;;9.08;100.00;95775.94;5103283;28;20396;-80
2024/03/31 02:20:07;;;;;;;8.35;2.20;;;;;;;9.06;100.00;95764.84;5114612;28;20388;-81
2024/03/31 02:22:33;;;;;;;9.77;2.72;;;;;;;9.05;100.00;95754.56;5123305;28;20388;-81
2024/03/31 02:24:59;;;;;;;8.70;2.40;;;;;;;9.04;100.00;95755.63;5121382;28;20879;-81
2024/03/31 02:27:25;;;;;;;11.52;3.10;;;;;;;9.01;100.00;95738.53;5109558;28;20409;-80
2024/03/31 02:29:52;;;;;;;7.13;2.33;;;;;;;8.98;100.00;95731.16;5103799;28;20394;-81
2024/03/31 02:32:20;;;;;;;16.60;3.45;;;;;;;8.93;100.00;95725.94;5102828;28;20742;-79
2024/03/31 02:34:46;;;;;;;10.30;2.80;;;;;;;8.90;100.00;95721.22;5108147;28;20899;-82
2024/03/31 02:37:12;;;;;;;5.05;2.33;;;;;;;8.84;100.00;95703.88;5113841;28;20423;-81
2024/03/31 02:39:38;;;;;;;13.88;2.60;;;;;;;8.77;100.00;95691.03;5104558;28;20420;-80
2024/03/31 02:42:05;;;;;;;19.27;3.63;;;;;;;8.72;100.00;95720.06;5127773;28;20397;-81
2024/03/31 02:44:31;;;;;;;29.85;5.18;;;;;;;8.61;100.00;95721.25;5120440;28;20507;-79
2024/03/31 02:46:58;;;;;;;26.80;4.37;;;;;;;8.46;100.00;95727.47;5100116;28;20408;-80
2024/03/31 02:49:25;;;;;;;24.48;4.82;;;;;;;8.44;100.00;95721.69;5128672;28;20392;-81
2024/03/31 02:51:51;;;;;;;11.70;3.70;;;;;;;8.41;100.00;95727.53;5121670;28;20896;-80
2024/03/31 02:54:18;;;;;;;29.38;4.72;;;;;;;8.35;100.00;95738.34;5125270;28;20856;-81
2024/03/31 02:56:44;;;;;;;23.88;4.40;;;;;;;8.37;100.00;95739.66;5123507;28;20503;-80
2024/03/31 02:59:10;;;;;;;31.00;4.93;;;;;;;8.38;100.00;95733.34;5104753;28;20397;-81
2024/03/31 03:01:36;;;;;;;25.50;3.53;;;;;;;8.29;100.00;95731.53;5104114;28;20394;-81
2024/03/31 03:04:03;;;;;;;10.32;3.00;;;;;;;8.18;100.00;95725.56;5101931;28;20386;-80
2024/03/31 03:06:30;;;;;;;8.32;2.72;;;;;;;8.08;100.00;95708.00;5107712;28;20394;-80
2024/03/31 03:08:56;;;;;;;14.35;2.60;;;;;;;8.00;100.00;95719.13;5102082;28;20763;-80
2024/03/31 03:11:22;;;;;;;30.77;4.10;;;;;;;7.91;100.00;95733.13;5105846;28;20416;-80
2024/03/31 03:13:49;;;;;;;16.75;3.60;;;;;;;7.86;100.00;95714.75;5100175;28;20896;-80
2024/03/31 03:16:15;;;;;;;10.93;3.00;;;;;;;7.76;100.00;95700.56;5100358;28;20452;-80
2024/03/31 03:18:41;;;;;;;7.70;2.60;;;;;;;7.67;100.00;95691.69;5107827;28;20799;-80
2024/03/31 03:21:07;;;;;;;11.38;2.88;;;;;;;7.66;100.00;95710.41;5112813;28;20397;-80
2024/03/31 03:23:35;;;;;;;23.38;5.28;;;;;;;7.64;100.00;95728.31;5121206;28;20400;-80
2024/03/31 03:26:01;;;;;;;22.55;5.13;;;;;;;7.61;100.00;95736.75;5122448;28;20424;-80
2024/03/31 03:28:27;;;;;;;25.83;4.25;;;;;;;7.49;100.00;95729.19;5137345;28;20395;-80
2024/03/31 03:30:53;;;;;;;14.15;3.30;;;;;;;7.39;100.00;95726.59;5138744;28;20384;-80
2024/03/31 03:33:20;;;;;;;24.52;4.45;;;;;;;7.38;100.00;95722.38;5122640;28;20402;-80
2024/03/31 03:35:46;;;;;;;15.85;3.88;;;;;;;7.27;100.00;95716.41;5099525;28;20512;-80
2024/03/31 03:38:12;;;;;;;18.77;3.05;;;;;;;7.21;100.00;95714.06;5119731;28;20449;-80
2024/03/31 03:40:40;;;;;;;15.53;3.53;;;;;;;7.09;100.00;95718.84;5111360;28;20386;-81
2024/03/31 03:43:06;;;;;;;16.75;3.50;;;;;;;7.05;100.00;95715.19;5116021;28;20412;-81
2024/03/31 03:45:32;;;;;;;28.58;3.38;;;;;;;7.05;100.00;95712.56;5139058;28;20392;-80
2024/03/31 03:47:58;;;;;;;18.48;4.07;;;;;;;6.97;100.00;95725.22;5120347;28;20396;-81
2024/03/31 03:50:24;;;;;;;29.17;4.38;;;;;;;6.86;100.00;95713.13;5108318;28;20398;-79
2024/03/31 03:52:52;;;;;;;16.48;3.30;;;;;;;6.75;100.00;95716.06;5117188;28;20504;-80
2024/03/31 03:55:18;;;;;;;14.32;3.33;;;;;;;6.70;100.00;95714.22;5099983;28;20420;-81
2024/03/31 03:57:49;;;;;;;15.98;3.47;;;;;;;6.63;100.00;95718.19;5119159;28;20479;-81
2024/03/31 04:00:15;;;;;;;19.25;3.75;;;;;;;6.64;100.00;95709.25;5119489;28;20395;-81
2024/03/31 04:02:41;;;;;;;18.02;3.72;;;;;;;6.58;100.00;95714.53;5119319;28;20554;-81
2024/03/31 04:05:08;;;;;;;14.75;3.60;;;;;;;6.54;100.00;95710.09;5118989;28;20393;-80
2024/03/31 04:07:34;;;;;;;11.70;3.35;;;;;;;6.45;100.00;95711.66;5104170;28;20418;-81
2024/03/31 04:10:00;;;;;;;11.47;3.10;;;;;;;6.39;100.00;95702.22;5099162;28;20476;-81
2024/03/31 04:12:26;;;;;;;15.18;3.53;;;;;;;6.38;100.00;95705.91;5105056;28;20392;-81
2024/03/31 04:14:54;;;;;;;22.93;5.10;;;;;;;6.40;100.00;95707.19;5119353;28;20396;-77
2024/03/31 04:17:20;;;;;;;22.40;4.65;;;;;;;6.34;100.00;95700.38;5113233;28;20406;-79
2024/03/31 04:19:46;;;;;;;17.77;4.68;;;;;;;6.26;100.00;95700.13;5115821;28;20393;-81
2024/03/31 04:22:12;;;;;;;13.37;3.77;;;;;;;6.26;100.00;95710.63;5119487;28;20384;-80
2024/03/31 04:24:39;;;;;;;16.02;3.60;;;;;;;6.26;100.00;95719.31;5118579;28;20385;-81
2024/03/31 04:27:05;;;;;;;20.15;4.57;;;;;;;6.34;100.00;95728.50;5119111;28;20416;-80
2024/03/31 04:29:31;;;;;;;18.83;4.65;;;;;;;6.36;100.00;95732.44;5105073;28;20433;-79
2024/03/31 04:31:59;;;;;;;22.48;4.75;;;;;;;6.43;100.00;95737.41;5109093;28;20757;-79
2024/03/31 04:34:30;;;;;;;24.05;5.15;;;;;;;6.41;100.00;95739.53;5119050;28;20388;-80
2024/03/31 04:36:57;;;;;;;19.43;4.93;;;;;;;6.43;100.00;95740.06;5116884;28;20451;-80
2024/03/31 04:39:24;;;;;;;16.17;4.30;;;;;;;6.45;100.00;95732.69;5104810;28;20880;-80
2024/03/31 04:41:52;;;;;;;20.40;4.93;;;;;;;6.55;100.00;95735.28;5118859;28;20400;-80
2024/03/31 04:44:18;;;;;;;14.55;4.40;;;;;;;6.61;100.00;95735.00;5113956;28;20390;-78
2024/03/31 04:46:46;;;;;;;12.00;3.65;;;;;;;6.70;100.00;95732.63;5094918;28;20405;-80
2024/03/31 04:49:14;;;;;;;15.60;4.60;;;;;;;6.78;100.00;95728.66;5095354;28;20500;-80
2024/03/31 04:51:40;;;;;;;23.25;6.18;;;;;;;6.85;100.00;95734.44;5095554;28;20488;-80
2024/03/31 04:54:06;;;;;;;29.88;6.60;;;;;;;6.90;100.00;95739.69;5097357;28;20802;-80
2024/03/31 04:56:33;;;;;;;19.15;5.03;;;;;;;6.96;100.00;95742.03;5101476;28;20413;-81
2024/03/31 04:58:59;;;;;;;22.48;5.85;;;;;;;7.02;100.00;95736.75;5101212;28;20398;-81
2024/03/31 05:01:25;;;;;;;16.98;5.25;;;;;;;7.08;100.00;95736.47;5122630;28;20400;-81
2024/03/31 05:03:51;;;;;;;14.25;4.30;;;;;;;7.16;100.00;95745.66;5097768;28;20436;-80
2024/03/31 05:06:18;;;;;;;14.23;3.80;;;;;;;7.22;100.00;95755.09;5102145;28;20406;-81
2024/03/31 05:08:45;;;;;;;7.75;3.03;;;;;;;7.26;100.00;95758.78;5097570;28;20386;-80
2024/03/31 05:11:11;;;;;;;6.07;2.83;;;;;;;7.32;100.00;95755.06;5097112;28;20401;-80
2024/03/31 05:13:37;;;;;;;6.43;3.00;;;;;;;7.37;100.00;95747.13;5096032;28;20393;-81
2024/03/31 05:16:05;;;;;;;15.98;4.18;;;;;;;7.45;100.00;95749.19;5095945;28;20426;-80
2024/03/31 05:18:34;;;;;;;21.67;4.90;;;;;;;7.48;100.00;95740.00;5095552;28;20391;-80
2024/03/31 05:21:02;;;;;;;10.45;3.85;;;;;;;7.52;100.00;95733.91;5094297;28;20729;-79
2024/03/31 05:23:30;;;;;;;5.93;2.97;;;;;;;7.57;100.00;95741.00;5095068;28;20427;-80
2024/03/31 05:25:57;;;;;;;8.95;3.20;;;;;;;7.63;100.00;95753.06;5097450;28;20909;-80
2024/03/31 05:28:24;;;;;;;33.10;6.78;;;;;;;7.68;100.00;95748.56;5101724;28;21091;-80
2024/03/31 05:30:50;;;;;;;13.32;3.90;;;;;;;7.70;100.00;95751.72;5098537;28;20401;-80
2024/03/31 05:33:17;;;;;;;7.38;4.07;;;;;;;7.74;100.00;95750.09;5110249;28;20400;-80
2024/03/31 05:35:44;;;;;;;11.95;3.10;;;;;;;7.78;100.00;95739.81;5103522;28;20777;-80
2024/03/31 05:38:11;;;;;;;11.80;3.60;;;;;;;7.82;100.00;95740.81;5103166;28;20390;-78
2024/03/31 05:40:39;;;;;;;10.35;3.42;;;;;;;7.89;100.00;95741.34;5101942;28;20392;-79
2024/03/31 05:43:05;;;;;;;7.13;3.03;;;;;;;7.94;100.00;95737.88;5103942;28;20424;-80
2024/03/31 05:45:34;;;;;;;8.60;2.83;;;;;;;7.99;100.00;95741.25;5099960;28;20396;-78
2024/03/31 05:48:00;;;;;;;5.50;3.00;;;;;;;8.04;100.00;95735.94;5102445;28;20996;-77
2024/03/31 05:50:26;;;;;;;4.88;2.70;;;;;;;8.10;100.00;95728.81;5101515;28;20401;-79
2024/03/31 05:52:53;;;;;;;4.22;2.40;;;;;;;8.15;100.00;95734.03;5085773;28;20908;-79
2024/03/31 05:55:19;;;;;;;3.50;2.10;;;;;;;8.21;100.00;95718.94;5094444;28;20442;-79
2024/03/31 05:57:47;;;;;;;2.92;1.83;;;;;;;8.25;100.00;95712.88;5096863;28;20481;-79
2024/03/31 06:00:13;;;;;;;7.88;3.10;;;;;;;8.29;100.00;95713.88;5095163;28;20386;-79
2024/03/31 06:02:39;;;;;;;16.77;5.25;;;;;;;8.30;100.00;95712.03;5095267;28;20409;-79
2024/03/31 06:05:07;;;;;;;12.80;4.10;;;;;;;8.32;100.00;95710.72;5098612;28;20403;-78
2024/03/31 06:07:33;;;;;;;30.75;7.35;;;;;;;8.31;100.00;95700.44;5102741;28;20924;-78
2024/03/31 06:09:59;;;;;;;13.32;5.40;;;;;;;8.31;100.00;95690.69;5111926;28;20392;-79
2024/03/31 06:12:26;;;;;;;8.85;4.18;;;;;;;8.34;100.00;95687.50;5119466;28;20390;-79
2024/03/31 06:14:54;;;;;;;7.38;3.75;;;;;;;8.38;100.00;95688.50;5129742;28;20396;-79
2024/03/31 06:17:21;;;;;;;8.90;3.77;;;;;;;8.41;100.00;95679.28;5116328;28;20397;-79
2024/03/31 06:19:47;;;;;;;7.07;3.15;;;;;;;8.45;100.00;95678.44;5116603;28;20461;-79
2024/03/31 06:22:13;;;;;;;7.35;3.30;;;;;;;8.49;100.00;95670.75;5104323;28;20394;-79
2024/03/31 06:24:40;;;;;;;6.93;3.47;;;;;;;8.57;100.00;95672.00;5092715;28;20409;-76
2024/03/31 06:27:06;;;;;;;5.55;2.83;;;;;;;8.67;100.00;95671.88;5073592;28;20901;-76
2024/03/31 06:29:32;;;;;;;5.20;2.70;;;;;;;8.76;100.00;95660.44;5093081;28;20397;-80
2024/03/31 06:32:00;;;;;;;3.53;2.33;;;;;;;8.86;100.00;95662.19;5095802;28;20398;-78
2024/03/31 06:34:26;;;;;;;4.47;2.70;;;;;;;8.96;100.00;95663.88;5098798;28;20406;-79
2024/03/31 06:36:52;;;;;;;3.72;2.35;;;;;;;9.06;100.00;95669.84;5103633;28;20450;-78
2024/03/31 06:39:19;;;;;;;4.20;2.30;;;;;;;9.14;100.00;95661.28;5098849;28;20398;-78
2024/03/31 06:41:45;;;;;;;2.78;2.17;;;;;;;9.22;100.00;95668.59;5103784;28;20400;-79
2024/03/31 06:44:11;;;;;;;7.40;2.95;;;;;;;9.28;100.00;95677.22;5105528;28;20572;-78
2024/03/31 06:46:38;;;;;;;5.28;2.60;;;;;;;9.30;100.00;95673.22;5105549;28;20396;-78
2024/03/31 06:49:06;;;;;;;9.88;3.45;;;;;;;9.31;100.00;95672.16;5105342;28;20459;-77
2024/03/31 06:51:32;;;;;;;10.43;3.20;;;;;;;9.33;100.00;95669.22;5111962;28;20396;-77
2024/03/31 06:53:58;;;;;;;7.10;2.92;;;;;;;9.36;100.00;95665.22;5107878;28;20397;-78
2024/03/31 06:56:24;;;;;;;10.65;3.75;;;;;;;9.33;100.00;95669.22;5119517;28;20404;-81
2024/03/31 06:58:50;;;;;;;19.17;4.65;;;;;;;9.34;100.00;95673.44;5104344;28;20390;-79
2024/03/31 07:01:16;;;;;;;7.40;3.77;;;;;;;9.37;100.00;95653.59;5108023;28;20417;-80
2024/03/31 07:03:43;;;;;;;6.50;3.40;;;;;;;9.41;100.00;95651.94;5108860;28;20401;-80
2024/03/31 07:06:13;;;;;;;9.65;3.97;;;;;;;9.49;100.00;95652.09;5105222;28;20485;-81
2024/03/31 07:08:39;;;;;;;9.70;4.10;;;;;;;9.64;100.00;95640.53;5100410;28;20432;-77
2024/03/31 07:11:05;;;;;;;13.25;4.05;;;;;;;9.81;100.00;95635.50;5097611;28;20410;-79
2024/03/31 07:13:31;;;;;;;6.63;2.90;;;;;;;9.90;100.00;95640.94;5095873;28;20394;-78
2024/03/31 07:15:57;;;;;;;4.47;2.97;;;;;;;9.95;100.00;95641.63;5094887;28;20417;-79
2024/03/31 07:18:23;;;;;;;7.70;3.30;;;;;;;9.97;100.00;95649.28;5096083;28;20440;-80
2024/03/31 07:20:49;;;;;;;7.68;3.58;;;;;;;9.96;100.00;95660.91;5098806;28;21129;-78
2024/03/31 07:23:17;;;;;;;5.10;2.80;;;;;;;10.01;100.00;95663.47;5096636;28;20405;-79
2024/03/31 07:25:43;;;;;;;16.25;4.95;;;;;;;10.08;100.00;95666.53;5095359;28;20864;-78
2024/03/31 07:28:09;;;;;;;8.82;3.70;;;;;;;10.13;100.00;95658.53;5100010;28;20400;-78
2024/03/31 07:30:35;;;;;;;7.22;2.80;;;;;;;10.16;100.00;95655.28;5106219;28;20405;-78
2024/03/31 07:33:02;;;;;;;4.80;2.30;;;;;;;10.25;100.00;95655.44;5105695;28;20385;-80
2024/03/31 07:35:28;;;;;;;8.00;2.88;;;;;;;10.36;100.00;95652.34;5101074;28;20429;-79
2024/03/31 07:37:54;;;;;;;9.88;3.30;;;;;;;10.34;100.00;95651.84;5102671;28;20428;-80
2024/03/31 07:40:21;;;;;;;4.88;2.03;;;;;;;10.42;100.00;95650.38;5101794;28;20402;-76
2024/03/31 07:42:47;;;;;;;18.35;3.53;;;;;;;10.46;100.00;95649.50;5098771;28;20405;-79
2024/03/31 07:45:14;;;;;;;13.60;3.20;;;;;;;10.63;100.00;95646.28;5096362;28;20404;-77
2024/03/31 07:47:40;;;;;;;6.97;2.70;;;;;;;10.70;100.00;95644.03;5093846;28;20476;-77
2024/03/31 07:50:06;;;;;;;4.80;2.45;;;;;;;10.78;100.00;95640.69;5101056;28;20432;-79
2024/03/31 07:52:32;;;;;;;4.07;2.00;;;;;;;10.84;100.00;95636.88;5102747;28;20476;-77
2024/03/31 07:54:58;;;;;;;3.35;1.88;;;;;;;10.90;100.00;95632.25;5114743;28;20928;-79
2024/03/31 07:57:26;;;;;;;5.35;1.77;;;;;;;10.96;100.00;95625.00;5106817;28;20395;-78
2024/03/31 07:59:52;;;;;;;4.78;1.73;;;;;;;11.02;100.00;95619.31;5108495;28;20764;-79
2024/03/31 08:02:18;;;;;;;5.20;1.90;;;;;;;11.08;100.00;95626.06;5113492;28;20456;-78
2024/03/31 08:04:45;;;;;;;4.82;1.83;;;;;;;11.12;100.00;95635.00;5113783;28;20487;-75
2024/03/31 08:07:11;;;;;;;7.40;3.00;;;;;;;11.29;100.00;95637.00;5100370;28;20397;-77
2024/03/31 08:09:37;;;;;;;3.67;1.70;;;;;;;11.38;100.00;95634.44;5092172;28;20779;-78
2024/03/31 08:12:04;;;;;;;5.18;1.60;;;;;;;11.40;100.00;95629.63;5092733;28;20421;-78
2024/03/31 08:14:32;;;;;;;7.60;2.03;;;;;;;11.41;100.00;95632.00;5092409;28;20394;-78
2024/03/31 08:16:58;;;;;;;5.10;2.03;;;;;;;11.46;100.00;95637.16;5100564;28;20439;-77
2024/03/31 08:19:25;;;;;;;6.53;1.73;;;;;;;11.54;100.00;95643.63;5092388;28;20394;-78
2024/03/31 08:21:51;;;;;;;9.40;2.33;;;;;;;11.64;100.00;95633.59;5103717;28;20392;-78
2024/03/31 08:24:17;;;;;;;4.32;1.42;;;;;;;11.76;100.00;95640.25;5099115;28;20404;-78
2024/03/31 08:26:44;;;;;;;6.40;1.60;;;;;;;11.87;100.00;95638.94;5110875;28;20933;-78
2024/03/31 08:29:11;;;;;;;10.80;2.53;;;;;;;12.05;100.00;95629.19;5111463;28;20410;-77
2024/03/31 08:31:38;;;;;;;12.77;2.40;;;;;;;12.21;100.00;95628.53;5104522;28;20445;-78
2024/03/31 08:34:04;;;;;;;10.07;2.40;;;;;;;12.39;100.00;95624.09;5109258;28;20574;-78
2024/03/31 08:36:30;;;;;;;6.13;1.63;;;;;;;12.54;100.00;95618.41;5098034;28;20443;-77
2024/03/31 08:38:56;;;;;;;5.90;1.70;;;;;;;12.67;100.00;95620.16;5112753;28;20395;-79
2024/03/31 08:41:30;;;;;;;8.45;2.17;;;;;;;12.76;100.00;95620.97;5115022;28;20399;-79
2024/03/31 08:44:00;;;;;;;11.60;2.55;;;;;;;12.73;100.00;95612.84;5114625;28;20381;-79
2024/03/31 08:46:26;;;;;;;11.97;2.57;;;;;;;12.61;100.00;95612.63;5088557;28;20442;-78
2024/03/31 08:48:54;;;;;;;9.57;2.58;;;;;;;12.66;100.00;95607.97;5092395;28;20517;-79
2024/03/31 08:51:20;;;;;;;5.63;1.40;;;;;;;12.87;100.00;95596.78;5097203;28;20396;-79
2024/03/31 08:53:48;;;;;;;3.78;1.42;;;;;;;13.15;100.00;95596.25;5114366;28;20392;-78
2024/03/31 08:56:14;;;;;;;6.57;1.58;;;;;;;13.43;100.00;95588.00;5100371;28;20410;-79
2024/03/31 08:58:42;;;;;;;6.60;1.33;;;;;;;13.68;100.00;95576.56;5092340;28;20401;-79
2024/03/31 09:01:12;;;;;;;10.02;1.80;;;;;;;13.85;100.00;95570.44;5091847;28;20899;-79
2024/03/31 09:03:39;;;;;;;8.75;1.48;;;;;;;13.89;100.00;95590.00;5096490;28;20405;-79
2024/03/31 09:06:06;;;;;;;4.28;1.45;;;;;;;13.92;100.00;95602.66;5092740;28;20485;-79
2024/03/31 09:08:32;;;;;;;11.23;2.20;;;;;;;14.09;100.00;95593.88;5092392;28;20486;-79
2024/03/31 09:10:59;;;;;;;8.32;1.85;;;;;;;14.25;100.00;95590.38;5094419;28;20398;-78
2024/03/31 09:13:25;;;;;;;7.50;1.98;;;;;;;14.52;100.00;95591.88;5098219;28;20429;-79
2024/03/31 09:15:51;;;;;;;3.75;1.58;;;;;;;14.91;100.00;95585.44;5093258;28;20809;-79
2024/03/31 09:18:17;;;;;;;6.50;1.50;;;;;;;15.47;100.00;95572.69;5107672;28;20390;-79
2024/03/31 09:20:43;;;;;;;8.18;1.65;;;;;;;15.70;100.00;95576.59;5092469;28;20739;-78
2024/03/31 09:23:12;;;;;;;14.25;2.63;;;;;;;15.41;100.00;95579.31;5092210;28;20809;-79
2024/03/31 09:25:39;;;;;;;10.98;2.80;;;;;;;15.13;100.00;95568.38;5091981;28;20398;-79
2024/03/31 09:28:06;;;;;;;10.10;2.33;;;;;;;14.87;100.00;95557.09;5096059;28;20446;-79
2024/03/31 09:30:32;;;;;;;11.55;2.55;;;;;;;14.78;100.00;95567.00;5112406;28;20439;-79
2024/03/31 09:32:58;;;;;;;6.45;1.92;;;;;;;14.81;100.00;95567.13;5101475;28;20412;-79
2024/03/31 09:35:25;;;;;;;16.35;2.47;;;;;;;14.85;100.00;95552.09;5092198;28;20390;-78
2024/03/31 09:37:51;;;;;;;8.95;2.30;;;;;;;15.14;100.00;95561.94;5110213;28;20878;-79
2024/03/31 09:40:19;;;;;;;5.80;1.70;;;;;;;15.68;100.00;95549.47;5115981;28;20484;-79
2024/03/31 09:42:46;;;;;;;5.30;1.73;;;;;;;16.31;100.00;95549.28;5104157;28;20797;-79
2024/03/31 09:45:12;;;;;;;5.18;1.50;;;;;;;16.91;100.00;95537.88;5092633;28;20762;-78
2024/03/31 09:47:40;;;;;;;5.57;1.80;;;;;;;17.39;100.00;95528.94;5092753;28;20394;-78
2024/03/31 09:50:15;;;;;;;7.45;1.60;;;;;;;17.53;100.00;95507.94;5094100;28;20409;-79
2024/03/31 09:52:43;;;;;;;12.00;2.83;;;;;;;17.56;100.00;95490.44;5101806;28;20803;-79
2024/03/31 09:55:13;;;;;;;9.38;1.80;;;;;;;17.42;100.00;95498.84;5109773;28;20907;-79
2024/03/31 09:57:43;;;;;;;6.60;1.98;;;;;;;17.14;100.00;95509.50;5092755;28;20390;-79
2024/03/31 10:00:13;;;;;;;6.13;1.70;;;;;;;16.97;100.00;95501.75;5093434;28;20402;-79
2024/03/31 10:02:44;;;;;;;7.97;1.90;;;;;;;16.72;100.00;95493.00;5102771;28;20459;-78
2024/03/31 10:05:14;;;;;;;7.57;1.73;;;;;;;17.06;100.00;95499.75;5092079;28;20476;-78
2024/03/31 10:07:42;;;;;;;8.60;1.90;;;;;;;17.53;100.00;95496.44;5094651;28;20408;-79
2024/03/31 10:10:09;;;;;;;12.35;2.10;;;;;;;18.09;100.00;95476.56;5095584;28;20386;-79
2024/03/31 10:12:38;;;;;;;8.15;1.50;;;;;;;18.77;100.00;95475.47;5095809;28;20414;-78
2024/03/31 10:15:07;;;;;;;12.07;1.88;;;;;;;19.34;100.00;95474.75;5116119;28;20392;-79
2024/03/31 10:17:36;;;;;;;9.65;2.30;;;;;;;19.88;100.00;95473.88;5107837;28;20412;-78
2024/03/31 10:20:04;;;;;;;8.40;1.83;;;;;;;20.04;100.00;95461.91;5120342;28;20479;-78
2024/03/31 10:22:31;;;;;;;6.10;1.20;;;;;;;20.34;100.00;95453.19;5115818;28;20390;-77
2024/03/31 10:24:58;;;;;;;7.40;1.40;;;;;;;20.96;100.00;95446.41;5115994;28;20768;-78
2024/03/31 10:27:25;;;;;;;6.32;1.50;;;;;;;21.66;100.00;95451.09;5116440;28;20403;-79
2024/03/31 10:29:54;;;;;;;3.67;1.40;;;;;;;22.56;100.00;95448.81;5099350;28;20440;-78
2024/03/31 10:32:22;;;;;;;8.82;1.60;;;;;;;23.52;100.00;95433.97;5096271;28;20450;-79
2024/03/31 10:34:48;;;;;;;17.55;2.38;;;;;;;24.20;100.00;95434.09;5099397;28;20398;-79
2024/03/31 10:37:16;;;;;;;16.90;2.30;;;;;;;24.56;100.00;95429.44;5109526;28;20408;-79
2024/03/31 10:39:44;;;;;;;10.23;2.00;;;;;;;24.53;100.00;95427.50;5115420;28;20756;-79
2024/03/31 10:42:10;;;;;;;4.47;1.27;;;;;;;24.77;100.00;95425.91;5103181;28;20498;-79
2024/03/31 10:44:37;;;;;;;8.52;1.70;;;;;;;24.98;100.00;95417.75;5095621;28;20430;-78
2024/03/31 10:47:05;;;;;;;9.77;1.55;;;;;;;24.79;100.00;95427.06;5095787;28;20874;-78
2024/03/31 10:49:36;;;;;;;8.53;1.90;;;;;;;24.31;100.00;95432.16;5096405;28;20401;-79
2024/03/31 10:52:03;;;;;;;9.63;1.92;;;;;;;23.46;100.00;95429.25;5095751;28;20475;-78
2024/03/31 10:54:33;;;;;;;6.80;1.55;;;;;;;22.90;100.00;95429.81;5110045;28;20392;-79
2024/03/31 10:57:01;;;;;;;10.70;2.05;;;;;;;22.40;100.00;95429.47;5113416;28;20440;-78
2024/03/31 10:59:28;;;;;;;10.77;1.88;;;;;;;22.25;100.00;95438.59;5095718;28;20714;-78
2024/03/31 11:01:57;;;;;;;4.88;1.35;;;;;;;22.25;100.00;95423.19;5095759;28;20397;-78
2024/03/31 11:04:26;;;;;;;4.85;1.50;;;;;;;22.14;100.00;95432.34;5109622;28;20471;-78
2024/03/31 11:06:55;;;;;;;8.43;1.70;;;;;;;21.73;100.00;95429.63;5108879;28;20860;-78
2024/03/31 11:09:22;;;;;;;4.93;1.25;;;;;;;21.29;100.00;95424.16;5112005;28;20471;-78
2024/03/31 11:11:49;;;;;;;7.65;1.60;;;;;;;20.82;100.00;95424.72;5095191;28;20708;-78
2024/03/31 11:14:15;;;;;;;7.78;1.60;;;;;;;20.40;100.00;95422.19;5100485;28;20392;-79
2024/03/31 11:16:42;;;;;;;14.60;3.10;;;;;;;20.06;100.00;95421.25;5108724;28;20898;-79
2024/03/31 11:19:08;;;;;;;9.02;1.80;;;;;;;19.67;100.00;95423.28;5108629;28;20399;-79
2024/03/31 11:21:36;;;;;;;8.77;1.97;;;;;;;19.37;100.00;95422.31;5110040;28;20428;-79
2024/03/31 11:24:05;;;;;;;13.13;2.05;;;;;;;18.94;100.00;95416.09;5108117;28;20749;-78